sensor_id;sensor_type;location;lat;lon;timestamp;pressure;altitude;pressure_sealevel;temperature;humidity
20160;BME280;50187;50.492;12.134;2024-02-23T00:01:54;94942.66;;;21.51;42.55
20160;BME280;50187;50.492;12.134;2024-02-23T00:04:40;94927.50;;;21.50;42.32
20160;BME280;50187;50.492;12.134;2024-02-23T00:07:26;94952.88;;;21.49;42.08
20160;BME280;50187;50.492;12.134;2024-02-23T00:10:11;94933.25;;;21.41;41.89
20160;BME280;50187;50.492;12.134;2024-02-23T00:12:56;94927.50;;;21.38;41.72
20160;BME280;50187;50.492;12.134;2024-02-23T00:15:41;94941.47;;;21.35;41.49
20160;BME280;50187;50.492;12.134;2024-02-23T00:18:26;94957.59;;;21.30;41.53
20160;BME280;50187;50.492;12.134;2024-02-23T00:21:11;94954.19;;;21.22;41.61
20160;BME280;50187;50.492;12.134;2024-02-23T00:23:56;94972.97;;;21.17;41.48
20160;BME280;50187;50.492;12.134;2024-02-23T00:26:42;94987.75;;;21.15;41.44
20160;BME280;50187;50.492;12.134;2024-02-23T00:29:28;94992.22;;;21.09;41.77
20160;BME280;50187;50.492;12.134;2024-02-23T00:32:13;94975.28;;;21.02;41.61
20160;BME280;50187;50.492;12.134;2024-02-23T00:34:58;94970.91;;;21.01;41.38
20160;BME280;50187;50.492;12.134;2024-02-23T00:37:44;94989.50;;;20.97;41.24
20160;BME280;50187;50.492;12.134;2024-02-23T00:40:29;95009.44;;;20.96;41.31
20160;BME280;50187;50.492;12.134;2024-02-23T00:43:14;94996.97;;;20.83;41.44
20160;BME280;50187;50.492;12.134;2024-02-23T00:45:59;95024.56;;;20.85;41.36
20160;BME280;50187;50.492;12.134;2024-02-23T00:48:45;95021.75;;;20.80;41.38
20160;BME280;50187;50.492;12.134;2024-02-23T00:51:30;95048.59;;;20.75;41.40
20160;BME280;50187;50.492;12.134;2024-02-23T00:54:15;95054.00;;;20.75;41.46
20160;BME280;50187;50.492;12.134;2024-02-23T00:57:00;95062.81;;;20.70;41.23
20160;BME280;50187;50.492;12.134;2024-02-23T00:59:46;95081.28;;;20.67;41.18
20160;BME280;50187;50.492;12.134;2024-02-23T01:02:31;95080.09;;;20.63;41.27
20160;BME280;50187;50.492;12.134;2024-02-23T01:05:18;95076.34;;;20.64;41.47
20160;BME280;50187;50.492;12.134;2024-02-23T01:08:04;95084.28;;;20.58;41.62
20160;BME280;50187;50.492;12.134;2024-02-23T01:10:49;95064.81;;;20.56;41.65
20160;BME280;50187;50.492;12.134;2024-02-23T01:13:34;95087.22;;;20.57;41.44
20160;BME280;50187;50.492;12.134;2024-02-23T01:16:19;95072.28;;;20.54;41.47
20160;BME280;50187;50.492;12.134;2024-02-23T01:19:05;95080.28;;;20.49;41.59
20160;BME280;50187;50.492;12.134;2024-02-23T01:21:50;95095.84;;;20.47;41.57
20160;BME280;50187;50.492;12.134;2024-02-23T01:24:44;95108.31;;;20.48;41.46
20160;BME280;50187;50.492;12.134;2024-02-23T01:27:29;95110.50;;;20.39;41.30
20160;BME280;50187;50.492;12.134;2024-02-23T01:30:14;95124.06;;;20.33;41.31
20160;BME280;50187;50.492;12.134;2024-02-23T01:33:00;95143.19;;;20.31;41.46
20160;BME280;50187;50.492;12.134;2024-02-23T01:35:45;95137.72;;;20.38;41.67
20160;BME280;50187;50.492;12.134;2024-02-23T01:38:31;95137.09;;;20.36;41.34
20160;BME280;50187;50.492;12.134;2024-02-23T01:41:17;95157.19;;;20.40;41.27
20160;BME280;50187;50.492;12.134;2024-02-23T01:44:03;95171.16;;;20.37;41.40
20160;BME280;50187;50.492;12.134;2024-02-23T01:46:49;95171.59;;;20.34;41.56
20160;BME280;50187;50.492;12.134;2024-02-23T01:49:35;95160.03;;;20.27;41.36
20160;BME280;50187;50.492;12.134;2024-02-23T01:52:20;95183.44;;;20.33;41.26
20160;BME280;50187;50.492;12.134;2024-02-23T01:55:06;95187.03;;;20.27;41.28
20160;BME280;50187;50.492;12.134;2024-02-23T01:57:52;95196.75;;;20.28;41.61
20160;BME280;50187;50.492;12.134;2024-02-23T02:00:37;95199.78;;;20.19;41.77
20160;BME280;50187;50.492;12.134;2024-02-23T02:03:23;95222.13;;;20.27;41.39
20160;BME280;50187;50.492;12.134;2024-02-23T02:06:09;95247.00;;;20.29;41.62
20160;BME280;50187;50.492;12.134;2024-02-23T02:08:55;95252.03;;;20.25;41.49
20160;BME280;50187;50.492;12.134;2024-02-23T02:11:47;95230.44;;;20.25;41.47
20160;BME280;50187;50.492;12.134;2024-02-23T02:14:33;95234.41;;;20.22;41.38
20160;BME280;50187;50.492;12.134;2024-02-23T02:17:18;95240.84;;;20.21;41.41
20160;BME280;50187;50.492;12.134;2024-02-23T02:20:04;95245.22;;;20.22;41.40
20160;BME280;50187;50.492;12.134;2024-02-23T02:22:49;95234.22;;;20.17;41.46
20160;BME280;50187;50.492;12.134;2024-02-23T02:25:35;95253.34;;;20.16;41.29
20160;BME280;50187;50.492;12.134;2024-02-23T02:28:21;95261.22;;;20.17;41.30
20160;BME280;50187;50.492;12.134;2024-02-23T02:31:06;95272.00;;;20.17;41.42
20160;BME280;50187;50.492;12.134;2024-02-23T02:33:51;95286.13;;;20.19;41.50
20160;BME280;50187;50.492;12.134;2024-02-23T02:36:37;95280.34;;;20.16;41.33
20160;BME280;50187;50.492;12.134;2024-02-23T02:39:22;95270.66;;;20.08;41.26
20160;BME280;50187;50.492;12.134;2024-02-23T02:42:07;95290.31;;;20.15;41.21
20160;BME280;50187;50.492;12.134;2024-02-23T02:44:53;95298.81;;;20.12;41.24
20160;BME280;50187;50.492;12.134;2024-02-23T02:47:38;95295.53;;;20.10;41.26
20160;BME280;50187;50.492;12.134;2024-02-23T02:50:26;95312.94;;;20.14;41.17
20160;BME280;50187;50.492;12.134;2024-02-23T02:53:11;95307.97;;;20.11;41.18
20160;BME280;50187;50.492;12.134;2024-02-23T02:55:57;95303.19;;;20.13;41.05
20160;BME280;50187;50.492;12.134;2024-02-23T02:58:42;95298.22;;;20.10;41.29
20160;BME280;50187;50.492;12.134;2024-02-23T03:01:27;95300.53;;;20.06;41.20
20160;BME280;50187;50.492;12.134;2024-02-23T03:04:13;95333.91;;;20.12;41.27
20160;BME280;50187;50.492;12.134;2024-02-23T03:06:58;95337.25;;;20.07;41.39
20160;BME280;50187;50.492;12.134;2024-02-23T03:09:44;95332.50;;;20.10;41.31
20160;BME280;50187;50.492;12.134;2024-02-23T03:12:30;95343.69;;;20.06;41.11
20160;BME280;50187;50.492;12.134;2024-02-23T03:15:15;95360.50;;;20.08;41.14
20160;BME280;50187;50.492;12.134;2024-02-23T03:18:01;95355.94;;;20.09;41.13
20160;BME280;50187;50.492;12.134;2024-02-23T03:20:47;95352.63;;;20.07;41.00
20160;BME280;50187;50.492;12.134;2024-02-23T03:23:32;95359.88;;;20.06;41.26
20160;BME280;50187;50.492;12.134;2024-02-23T03:26:17;95376.72;;;20.02;41.16
20160;BME280;50187;50.492;12.134;2024-02-23T03:29:03;95390.84;;;20.04;41.08
20160;BME280;50187;50.492;12.134;2024-02-23T03:31:48;95380.09;;;19.97;41.03
20160;BME280;50187;50.492;12.134;2024-02-23T03:34:35;95409.13;;;20.02;41.16
20160;BME280;50187;50.492;12.134;2024-02-23T03:37:20;95417.84;;;20.04;40.98
20160;BME280;50187;50.492;12.134;2024-02-23T03:40:06;95411.22;;;20.00;40.81
20160;BME280;50187;50.492;12.134;2024-02-23T03:42:51;95428.44;;;19.99;40.97
20160;BME280;50187;50.492;12.134;2024-02-23T03:45:36;95445.66;;;19.98;41.15
20160;BME280;50187;50.492;12.134;2024-02-23T03:48:22;95440.91;;;19.93;41.15
20160;BME280;50187;50.492;12.134;2024-02-23T03:51:08;95445.44;;;19.99;41.17
20160;BME280;50187;50.492;12.134;2024-02-23T03:53:53;95438.41;;;19.98;40.82
20160;BME280;50187;50.492;12.134;2024-02-23T03:56:42;95427.84;;;19.97;40.90
20160;BME280;50187;50.492;12.134;2024-02-23T03:59:27;95421.59;;;19.96;40.88
20160;BME280;50187;50.492;12.134;2024-02-23T04:02:13;95446.28;;;20.00;40.84
20160;BME280;50187;50.492;12.134;2024-02-23T04:04:58;95444.63;;;19.99;40.85
20160;BME280;50187;50.492;12.134;2024-02-23T04:07:43;95432.00;;;19.93;40.84
20160;BME280;50187;50.492;12.134;2024-02-23T04:10:29;95443.59;;;19.93;40.93
20160;BME280;50187;50.492;12.134;2024-02-23T04:13:14;95437.19;;;19.94;40.82
20160;BME280;50187;50.492;12.134;2024-02-23T04:16:01;95440.72;;;19.88;40.73
20160;BME280;50187;50.492;12.134;2024-02-23T04:18:46;95463.94;;;19.96;40.73
20160;BME280;50187;50.492;12.134;2024-02-23T04:21:31;95467.88;;;19.93;40.53
20160;BME280;50187;50.492;12.134;2024-02-23T04:24:16;95473.09;;;19.88;40.46
20160;BME280;50187;50.492;12.134;2024-02-23T04:27:02;95474.53;;;19.90;40.49
20160;BME280;50187;50.492;12.134;2024-02-23T04:29:47;95508.19;;;19.81;40.73
20160;BME280;50187;50.492;12.134;2024-02-23T04:32:33;95513.53;;;19.88;40.71
20160;BME280;50187;50.492;12.134;2024-02-23T04:35:18;95494.28;;;19.84;40.79
20160;BME280;50187;50.492;12.134;2024-02-23T04:38:03;95482.25;;;19.80;40.54
20160;BME280;50187;50.492;12.134;2024-02-23T04:40:49;95472.47;;;19.86;40.53
20160;BME280;50187;50.492;12.134;2024-02-23T04:43:34;95490.72;;;19.90;40.50
20160;BME280;50187;50.492;12.134;2024-02-23T04:46:20;95501.50;;;19.90;40.75
20160;BME280;50187;50.492;12.134;2024-02-23T04:49:05;95476.84;;;19.80;40.60
20160;BME280;50187;50.492;12.134;2024-02-23T04:51:50;95485.78;;;19.61;40.59
20160;BME280;50187;50.492;12.134;2024-02-23T04:54:35;95468.34;;;19.83;40.74
20160;BME280;50187;50.492;12.134;2024-02-23T04:57:20;95464.81;;;19.83;40.52
20160;BME280;50187;50.492;12.134;2024-02-23T05:00:06;95483.47;;;19.84;40.47
20160;BME280;50187;50.492;12.134;2024-02-23T05:02:53;95488.03;;;19.84;40.64
20160;BME280;50187;50.492;12.134;2024-02-23T05:05:38;95495.09;;;19.92;40.66
20160;BME280;50187;50.492;12.134;2024-02-23T05:08:23;95515.63;;;19.93;40.42
20160;BME280;50187;50.492;12.134;2024-02-23T05:11:09;95498.16;;;19.95;40.23
20160;BME280;50187;50.492;12.134;2024-02-23T05:13:54;95527.44;;;19.98;40.53
20160;BME280;50187;50.492;12.134;2024-02-23T05:16:40;95514.56;;;19.94;40.28
20160;BME280;50187;50.492;12.134;2024-02-23T05:19:25;95538.41;;;20.03;40.01
20160;BME280;50187;50.492;12.134;2024-02-23T05:22:11;95533.44;;;20.07;40.14
20160;BME280;50187;50.492;12.134;2024-02-23T05:24:56;95549.03;;;19.92;40.13
20160;BME280;50187;50.492;12.134;2024-02-23T05:27:42;95521.63;;;20.08;39.84
20160;BME280;50187;50.492;12.134;2024-02-23T05:30:27;95540.91;;;20.12;40.06
20160;BME280;50187;50.492;12.134;2024-02-23T05:33:16;95537.59;;;20.10;39.83
20160;BME280;50187;50.492;12.134;2024-02-23T05:36:01;95537.97;;;20.13;39.60
20160;BME280;50187;50.492;12.134;2024-02-23T05:38:47;95543.16;;;20.15;39.71
20160;BME280;50187;50.492;12.134;2024-02-23T05:41:31;95568.09;;;20.17;39.72
20160;BME280;50187;50.492;12.134;2024-02-23T05:44:17;95565.19;;;20.12;39.68
20160;BME280;50187;50.492;12.134;2024-02-23T05:47:03;95576.41;;;20.15;39.66
20160;BME280;50187;50.492;12.134;2024-02-23T05:49:50;95594.66;;;20.13;39.32
20160;BME280;50187;50.492;12.134;2024-02-23T05:52:35;95543.81;;;20.10;39.36
20160;BME280;50187;50.492;12.134;2024-02-23T05:55:21;95546.72;;;20.15;39.05
20160;BME280;50187;50.492;12.134;2024-02-23T05:58:07;95550.22;;;20.16;39.43
20160;BME280;50187;50.492;12.134;2024-02-23T06:00:52;95548.78;;;20.13;39.37
20160;BME280;50187;50.492;12.134;2024-02-23T06:03:38;95545.44;;;20.18;38.94
20160;BME280;50187;50.492;12.134;2024-02-23T06:06:23;95569.13;;;20.16;39.04
20160;BME280;50187;50.492;12.134;2024-02-23T06:09:09;95571.00;;;20.15;39.00
20160;BME280;50187;50.492;12.134;2024-02-23T06:11:54;95544.22;;;20.14;39.29
20160;BME280;50187;50.492;12.134;2024-02-23T06:14:40;95547.31;;;20.11;39.23
20160;BME280;50187;50.492;12.134;2024-02-23T06:17:25;95572.03;;;20.14;39.11
20160;BME280;50187;50.492;12.134;2024-02-23T06:20:10;95551.31;;;20.08;39.23
20160;BME280;50187;50.492;12.134;2024-02-23T06:22:56;95556.69;;;20.08;39.05
20160;BME280;50187;50.492;12.134;2024-02-23T06:25:41;95543.22;;;19.95;38.98
20160;BME280;50187;50.492;12.134;2024-02-23T06:28:30;95564.16;;;20.13;39.09
20160;BME280;50187;50.492;12.134;2024-02-23T06:31:15;95571.41;;;20.12;39.09
20160;BME280;50187;50.492;12.134;2024-02-23T06:34:01;95565.63;;;20.08;39.20
20160;BME280;50187;50.492;12.134;2024-02-23T06:36:47;95558.97;;;20.04;39.02
20160;BME280;50187;50.492;12.134;2024-02-23T06:39:32;95548.78;;;20.06;39.09
20160;BME280;50187;50.492;12.134;2024-02-23T06:42:18;95586.16;;;20.10;39.20
20160;BME280;50187;50.492;12.134;2024-02-23T06:45:03;95605.47;;;20.06;38.96
20160;BME280;50187;50.492;12.134;2024-02-23T06:47:48;95630.16;;;20.10;38.96
20160;BME280;50187;50.492;12.134;2024-02-23T06:50:35;95632.03;;;20.10;39.14
20160;BME280;50187;50.492;12.134;2024-02-23T06:53:20;95622.88;;;20.11;39.07
20160;BME280;50187;50.492;12.134;2024-02-23T06:56:06;95647.41;;;20.09;39.13
20160;BME280;50187;50.492;12.134;2024-02-23T06:58:51;95653.63;;;20.10;39.03
20160;BME280;50187;50.492;12.134;2024-02-23T07:01:47;95666.09;;;20.04;39.13
20160;BME280;50187;50.492;12.134;2024-02-23T07:04:32;95656.56;;;20.08;39.29
20160;BME280;50187;50.492;12.134;2024-02-23T07:07:18;95679.34;;;20.12;39.11
20160;BME280;50187;50.492;12.134;2024-02-23T07:10:04;95690.56;;;20.09;39.08
20160;BME280;50187;50.492;12.134;2024-02-23T07:12:49;95712.16;;;20.09;39.14
20160;BME280;50187;50.492;12.134;2024-02-23T07:15:37;95684.34;;;20.02;39.05
20160;BME280;50187;50.492;12.134;2024-02-23T07:18:23;95704.06;;;20.09;39.10
20160;BME280;50187;50.492;12.134;2024-02-23T07:21:08;95703.03;;;20.03;38.87
20160;BME280;50187;50.492;12.134;2024-02-23T07:23:53;95712.38;;;20.07;39.03
20160;BME280;50187;50.492;12.134;2024-02-23T07:26:39;95698.06;;;20.07;38.99
20160;BME280;50187;50.492;12.134;2024-02-23T07:29:24;95687.88;;;20.09;38.98
20160;BME280;50187;50.492;12.134;2024-02-23T07:32:09;95682.91;;;20.06;39.02
20160;BME280;50187;50.492;12.134;2024-02-23T07:34:55;95692.66;;;20.07;39.05
20160;BME280;50187;50.492;12.134;2024-02-23T07:37:40;95705.31;;;20.06;38.76
20160;BME280;50187;50.492;12.134;2024-02-23T07:40:26;95705.31;;;20.06;39.02
20160;BME280;50187;50.492;12.134;2024-02-23T07:43:11;95712.59;;;20.06;38.80
20160;BME280;50187;50.492;12.134;2024-02-23T07:45:57;95728.34;;;20.09;38.85
20160;BME280;50187;50.492;12.134;2024-02-23T07:48:42;95718.41;;;20.10;38.84
20160;BME280;50187;50.492;12.134;2024-02-23T07:51:27;95721.94;;;20.10;38.92
20160;BME280;50187;50.492;12.134;2024-02-23T07:54:13;95726.31;;;20.11;38.75
20160;BME280;50187;50.492;12.134;2024-02-23T07:56:58;95724.63;;;20.10;38.56
20160;BME280;50187;50.492;12.134;2024-02-23T07:59:44;95708.00;;;20.06;38.74
20160;BME280;50187;50.492;12.134;2024-02-23T08:02:29;95728.16;;;20.11;38.82
20160;BME280;50187;50.492;12.134;2024-02-23T08:05:15;95721.31;;;20.08;38.71
20160;BME280;50187;50.492;12.134;2024-02-23T08:08:01;95720.25;;;20.09;38.75
20160;BME280;50187;50.492;12.134;2024-02-23T08:10:46;95713.84;;;20.10;38.68
20160;BME280;50187;50.492;12.134;2024-02-23T08:13:31;95718.19;;;20.11;38.62
20160;BME280;50187;50.492;12.134;2024-02-23T08:16:16;95732.50;;;20.05;38.82
20160;BME280;50187;50.492;12.134;2024-02-23T08:19:02;95720.06;;;20.04;38.66
20160;BME280;50187;50.492;12.134;2024-02-23T08:21:47;95736.47;;;20.09;38.60
20160;BME280;50187;50.492;12.134;2024-02-23T08:24:32;95746.00;;;20.12;38.40
20160;BME280;50187;50.492;12.134;2024-02-23T08:27:17;95756.00;;;20.11;38.55
20160;BME280;50187;50.492;12.134;2024-02-23T08:30:03;95757.63;;;20.12;38.44
20160;BME280;50187;50.492;12.134;2024-02-23T08:32:49;95757.00;;;20.10;38.55
20160;BME280;50187;50.492;12.134;2024-02-23T08:35:35;95767.41;;;20.13;38.68
20160;BME280;50187;50.492;12.134;2024-02-23T08:38:20;95770.09;;;20.13;38.55
20160;BME280;50187;50.492;12.134;2024-02-23T08:41:06;95769.47;;;20.11;38.79
20160;BME280;50187;50.492;12.134;2024-02-23T08:43:51;95761.59;;;20.10;38.27
20160;BME280;50187;50.492;12.134;2024-02-23T08:46:36;95738.31;;;20.02;38.59
20160;BME280;50187;50.492;12.134;2024-02-23T08:49:24;95738.13;;;20.03;38.51
20160;BME280;50187;50.492;12.134;2024-02-23T08:52:09;95784.84;;;20.04;38.35
20160;BME280;50187;50.492;12.134;2024-02-23T08:54:55;95759.09;;;20.08;38.23
20160;BME280;50187;50.492;12.134;2024-02-23T08:57:40;95734.19;;;20.06;38.28
20160;BME280;50187;50.492;12.134;2024-02-23T09:00:26;95723.38;;;20.06;38.29
20160;BME280;50187;50.492;12.134;2024-02-23T09:03:11;95724.03;;;20.08;38.17
20160;BME280;50187;50.492;12.134;2024-02-23T09:05:57;95727.31;;;20.03;38.12
20160;BME280;50187;50.492;12.134;2024-02-23T09:08:43;95740.22;;;20.08;38.28
20160;BME280;50187;50.492;12.134;2024-02-23T09:11:28;95727.75;;;20.07;38.23
20160;BME280;50187;50.492;12.134;2024-02-23T09:14:14;95724.41;;;19.92;38.14
20160;BME280;50187;50.492;12.134;2024-02-23T09:16:59;95754.31;;;20.10;38.21
20160;BME280;50187;50.492;12.134;2024-02-23T09:19:44;95753.50;;;20.10;38.01
20160;BME280;50187;50.492;12.134;2024-02-23T09:22:30;95756.41;;;20.08;38.04
20160;BME280;50187;50.492;12.134;2024-02-23T09:25:15;95752.84;;;20.07;38.18
20160;BME280;50187;50.492;12.134;2024-02-23T09:28:01;95752.84;;;20.07;38.06
20160;BME280;50187;50.492;12.134;2024-02-23T09:30:46;95766.16;;;20.09;38.15
20160;BME280;50187;50.492;12.134;2024-02-23T09:33:31;95772.19;;;20.11;38.16
20160;BME280;50187;50.492;12.134;2024-02-23T09:36:17;95780.28;;;20.11;37.97
20160;BME280;50187;50.492;12.134;2024-02-23T09:39:02;95778.19;;;20.13;38.04
20160;BME280;50187;50.492;12.134;2024-02-23T09:41:54;95799.38;;;20.10;38.21
20160;BME280;50187;50.492;12.134;2024-02-23T09:44:39;95782.78;;;20.13;37.93
20160;BME280;50187;50.492;12.134;2024-02-23T09:47:27;95792.72;;;20.12;37.85
20160;BME280;50187;50.492;12.134;2024-02-23T09:50:17;95782.13;;;20.11;38.14
20160;BME280;50187;50.492;12.134;2024-02-23T09:53:04;95781.09;;;20.12;38.03
20160;BME280;50187;50.492;12.134;2024-02-23T09:55:50;95789.19;;;20.12;38.02
20160;BME280;50187;50.492;12.134;2024-02-23T09:58:37;95780.28;;;20.11;38.21
20160;BME280;50187;50.492;12.134;2024-02-23T10:01:40;95796.25;;;20.13;38.19
20160;BME280;50187;50.492;12.134;2024-02-23T10:04:27;95802.91;;;20.10;37.94
20160;BME280;50187;50.492;12.134;2024-02-23T10:07:15;95810.59;;;20.13;37.88
20160;BME280;50187;50.492;12.134;2024-02-23T10:10:07;95822.22;;;20.07;38.11
20160;BME280;50187;50.492;12.134;2024-02-23T10:12:53;95818.06;;;20.11;38.02
20160;BME280;50187;50.492;12.134;2024-02-23T10:15:38;95820.75;;;20.11;38.05
20160;BME280;50187;50.492;12.134;2024-02-23T10:18:37;95826.38;;;20.10;37.89
20160;BME280;50187;50.492;12.134;2024-02-23T10:21:23;95831.97;;;20.08;37.99
20160;BME280;50187;50.492;12.134;2024-02-23T10:24:10;95821.19;;;20.08;37.93
20160;BME280;50187;50.492;12.134;2024-02-23T10:26:55;95829.28;;;20.08;38.13
20160;BME280;50187;50.492;12.134;2024-02-23T10:29:41;95837.97;;;20.03;38.19
20160;BME280;50187;50.492;12.134;2024-02-23T10:32:29;95829.06;;;20.03;38.07
20160;BME280;50187;50.492;12.134;2024-02-23T10:35:15;95831.97;;;20.08;38.08
20160;BME280;50187;50.492;12.134;2024-02-23T10:38:04;95830.06;;;20.02;37.92
20160;BME280;50187;50.492;12.134;2024-02-23T10:40:54;95837.97;;;20.03;37.92
20160;BME280;50187;50.492;12.134;2024-02-23T10:43:43;95830.50;;;20.05;37.99
20160;BME280;50187;50.492;12.134;2024-02-23T10:46:31;95830.91;;;20.09;37.72
20160;BME280;50187;50.492;12.134;2024-02-23T10:49:17;95819.94;;;20.04;37.93
20160;BME280;50187;50.492;12.134;2024-02-23T10:52:06;95837.38;;;20.08;37.84
20160;BME280;50187;50.492;12.134;2024-02-23T10:54:53;95833.00;;;20.07;37.82
20160;BME280;50187;50.492;12.134;2024-02-23T10:57:38;95829.28;;;20.08;37.89
20160;BME280;50187;50.492;12.134;2024-02-23T11:00:24;95865.19;;;20.08;37.78
20160;BME280;50187;50.492;12.134;2024-02-23T11:03:11;95828.41;;;20.01;37.87
20160;BME280;50187;50.492;12.134;2024-02-23T11:05:59;95839.44;;;20.06;37.84
20160;BME280;50187;50.492;12.134;2024-02-23T11:08:44;95823.66;;;20.03;37.81
20160;BME280;50187;50.492;12.134;2024-02-23T11:11:31;95827.59;;;20.07;37.83
20160;BME280;50187;50.492;12.134;2024-02-23T11:14:17;95829.66;;;20.05;37.72
20160;BME280;50187;50.492;12.134;2024-02-23T11:17:03;95815.97;;;20.06;37.80
20160;BME280;50187;50.492;12.134;2024-02-23T11:19:49;95825.72;;;20.07;37.76
20160;BME280;50187;50.492;12.134;2024-02-23T11:22:36;95841.91;;;20.07;37.91
20160;BME280;50187;50.492;12.134;2024-02-23T11:25:26;95833.41;;;20.04;37.80
20160;BME280;50187;50.492;12.134;2024-02-23T11:28:22;95837.38;;;20.08;37.83
20160;BME280;50187;50.492;12.134;2024-02-23T11:31:14;95823.66;;;20.10;37.78
20160;BME280;50187;50.492;12.134;2024-02-23T11:34:00;95843.75;;;19.87;37.63
20160;BME280;50187;50.492;12.134;2024-02-23T11:36:50;95831.13;;;20.07;37.58
20160;BME280;50187;50.492;12.134;2024-02-23T11:39:39;95831.34;;;20.06;37.69
20160;BME280;50187;50.492;12.134;2024-02-23T11:42:26;95839.19;;;20.01;37.80
20160;BME280;50187;50.492;12.134;2024-02-23T11:45:12;95833.41;;;20.04;37.84
20160;BME280;50187;50.492;12.134;2024-02-23T11:47:57;95831.31;;;19.99;37.66
20160;BME280;50187;50.492;12.134;2024-02-23T11:50:43;95836.72;;;20.06;37.67
20160;BME280;50187;50.492;12.134;2024-02-23T11:53:29;95833.00;;;20.07;37.79
20160;BME280;50187;50.492;12.134;2024-02-23T11:56:15;95833.00;;;20.07;37.79
20160;BME280;50187;50.492;12.134;2024-02-23T11:59:01;95835.06;;;20.05;37.74
20160;BME280;50187;50.492;12.134;2024-02-23T12:01:47;95826.56;;;20.01;37.60
20160;BME280;50187;50.492;12.134;2024-02-23T12:04:32;95820.50;;;19.99;37.73
20160;BME280;50187;50.492;12.134;2024-02-23T12:07:18;95831.75;;;20.03;37.52
20160;BME280;50187;50.492;12.134;2024-02-23T12:10:03;95829.44;;;20.06;37.67
20160;BME280;50187;50.492;12.134;2024-02-23T12:12:49;95818.47;;;20.01;37.78
20160;BME280;50187;50.492;12.134;2024-02-23T12:15:35;95820.94;;;20.03;37.44
20160;BME280;50187;50.492;12.134;2024-02-23T12:18:23;95832.34;;;20.05;37.53
20160;BME280;50187;50.492;12.134;2024-02-23T12:21:11;95821.38;;;20.00;37.67
20160;BME280;50187;50.492;12.134;2024-02-23T12:23:57;95834.22;;;19.98;37.71
20160;BME280;50187;50.492;12.134;2024-02-23T12:26:42;95818.88;;;20.05;37.62
20160;BME280;50187;50.492;12.134;2024-02-23T12:29:28;95825.13;;;20.05;37.64
20160;BME280;50187;50.492;12.134;2024-02-23T12:32:13;95824.69;;;20.02;37.34
20160;BME280;50187;50.492;12.134;2024-02-23T12:34:58;95832.97;;;20.00;37.52
20160;BME280;50187;50.492;12.134;2024-02-23T12:37:43;95841.31;;;20.05;37.61
20160;BME280;50187;50.492;12.134;2024-02-23T12:40:30;95830.94;;;20.02;37.49
20160;BME280;50187;50.492;12.134;2024-02-23T12:43:15;95818.66;;;20.00;37.39
20160;BME280;50187;50.492;12.134;2024-02-23T12:46:00;95832.34;;;20.05;37.27
20160;BME280;50187;50.492;12.134;2024-02-23T12:48:48;95825.09;;;19.99;37.51
20160;BME280;50187;50.492;12.134;2024-02-23T12:51:33;95817.22;;;20.04;37.61
20160;BME280;50187;50.492;12.134;2024-02-23T12:54:19;95823.44;;;20.04;37.68
20160;BME280;50187;50.492;12.134;2024-02-23T12:57:04;95818.25;;;20.03;37.66
20160;BME280;50187;50.492;12.134;2024-02-23T12:59:50;95821.78;;;20.03;37.33
20160;BME280;50187;50.492;12.134;2024-02-23T13:02:35;95829.66;;;20.05;37.43
20160;BME280;50187;50.492;12.134;2024-02-23T13:05:20;95828.03;;;20.04;37.51
20160;BME280;50187;50.492;12.134;2024-02-23T13:08:05;95825.09;;;19.99;37.49
20160;BME280;50187;50.492;12.134;2024-02-23T13:10:52;95815.13;;;19.99;37.33
20160;BME280;50187;50.492;12.134;2024-02-23T13:13:38;95815.97;;;20.00;37.36
20160;BME280;50187;50.492;12.134;2024-02-23T13:16:27;95839.03;;;20.02;37.45
20160;BME280;50187;50.492;12.134;2024-02-23T13:19:12;95827.16;;;20.03;37.40
20160;BME280;50187;50.492;12.134;2024-02-23T13:21:58;95829.44;;;20.06;37.48
20160;BME280;50187;50.492;12.134;2024-02-23T13:24:45;95828.84;;;20.04;37.50
20160;BME280;50187;50.492;12.134;2024-02-23T13:27:30;95840.06;;;20.08;37.59
20160;BME280;50187;50.492;12.134;2024-02-23T13:30:16;95829.25;;;20.01;37.37
20160;BME280;50187;50.492;12.134;2024-02-23T13:33:01;95841.72;;;20.09;37.47
20160;BME280;50187;50.492;12.134;2024-02-23T13:35:47;95823.00;;;20.01;37.27
20160;BME280;50187;50.492;12.134;2024-02-23T13:38:33;95824.47;;;19.97;37.32
20160;BME280;50187;50.492;12.134;2024-02-23T13:41:23;95823.41;;;19.98;37.24
20160;BME280;50187;50.492;12.134;2024-02-23T13:44:08;95844.00;;;20.05;37.32
20160;BME280;50187;50.492;12.134;2024-02-23T13:46:54;95829.44;;;19.93;37.26
20160;BME280;50187;50.492;12.134;2024-02-23T13:49:39;95870.59;;;20.08;37.51
20160;BME280;50187;50.492;12.134;2024-02-23T13:52:25;95851.69;;;20.08;37.22
20160;BME280;50187;50.492;12.134;2024-02-23T13:55:10;95848.56;;;20.05;37.43
20160;BME280;50187;50.492;12.134;2024-02-23T13:57:55;95855.63;;;20.06;37.27
20160;BME280;50187;50.492;12.134;2024-02-23T14:00:41;95850.22;;;20.06;37.43
20160;BME280;50187;50.492;12.134;2024-02-23T14:03:26;95862.47;;;20.08;37.48
20160;BME280;50187;50.492;12.134;2024-02-23T14:06:12;95847.53;;;20.06;37.30
20160;BME280;50187;50.492;12.134;2024-02-23T14:08:57;95856.03;;;20.03;37.44
20160;BME280;50187;50.492;12.134;2024-02-23T14:11:43;95846.69;;;20.05;37.42
20160;BME280;50187;50.492;12.134;2024-02-23T14:14:28;95866.19;;;20.01;37.72
20160;BME280;50187;50.492;12.134;2024-02-23T14:17:13;95850.22;;;20.06;37.67
20160;BME280;50187;50.492;12.134;2024-02-23T14:19:59;95838.38;;;20.00;37.54
20160;BME280;50187;50.492;12.134;2024-02-23T14:22:47;95853.75;;;20.06;37.59
20160;BME280;50187;50.492;12.134;2024-02-23T14:35:46;95836.53;;;20.07;37.51
20160;BME280;50187;50.492;12.134;2024-02-23T14:38:31;95835.91;;;20.05;37.47